createdAt,value
2022-11-23T00:00:05.584Z,4.10
2022-11-23T00:00:37.469Z,4.57
2022-11-23T00:01:16.639Z,3.67
2022-11-23T00:01:48.267Z,3.38
2022-11-23T00:02:19.753Z,3.45
2022-11-23T00:02:57.703Z,3.63
2022-11-23T00:03:29.138Z,3.78
2022-11-23T00:04:02.119Z,3.63
2022-11-23T00:04:33.511Z,3.97
2022-11-23T00:05:05.100Z,3.83
2022-11-23T00:05:36.551Z,4.35
2022-11-23T00:06:08.138Z,4.30
2022-11-23T00:06:40.282Z,4.63
2022-11-23T00:07:11.819Z,4.30
2022-11-23T00:07:43.352Z,3.97
2022-11-23T00:08:14.848Z,4.68
2022-11-23T00:08:46.231Z,4.15
2022-11-23T00:09:17.767Z,4.20
2022-11-23T00:09:49.226Z,4.40
2022-11-23T00:10:20.760Z,5.10
2022-11-23T00:10:52.313Z,4.75
2022-11-23T00:11:24.545Z,4.65
2022-11-23T00:11:55.928Z,4.05
2022-11-23T00:12:27.362Z,4.10
2022-11-23T00:12:58.776Z,4.25
2022-11-23T00:13:30.201Z,5.32
2022-11-23T00:14:01.596Z,5.30
2022-11-23T00:14:33.124Z,4.72
2022-11-23T00:15:05.228Z,5.20
2022-11-23T00:15:36.667Z,5.05
2022-11-23T00:16:09.592Z,4.47
2022-11-23T00:16:41.076Z,5.45
2022-11-23T00:17:12.512Z,4.80
2022-11-23T00:17:43.922Z,4.32
2022-11-23T00:18:15.513Z,4.65
2022-11-23T00:18:47.546Z,5.63
2022-11-23T00:19:18.963Z,7.22
2022-11-23T00:19:50.368Z,4.55
2022-11-23T00:20:21.793Z,4.57
2022-11-23T00:20:53.233Z,4.97
2022-11-23T00:21:25.792Z,5.40
2022-11-23T00:21:57.281Z,4.78
2022-11-23T00:22:28.733Z,5.05
2022-11-23T00:23:00.326Z,5.53
2022-11-23T00:23:31.751Z,4.13
2022-11-23T00:24:03.286Z,4.82
2022-11-23T00:24:34.807Z,5.72
2022-11-23T00:25:06.516Z,4.72
2022-11-23T00:25:38.011Z,5.13
2022-11-23T00:26:09.500Z,4.68
2022-11-23T00:26:40.989Z,5.07
2022-11-23T00:27:12.720Z,4.78
2022-11-23T00:27:44.118Z,4.72
2022-11-23T00:28:15.677Z,4.60
2022-11-23T00:28:47.389Z,4.25
2022-11-23T00:29:18.759Z,4.18
2022-11-23T00:29:50.200Z,4.45
2022-11-23T00:30:21.668Z,5.20
2022-11-23T00:30:53.052Z,4.68
2022-11-23T00:31:24.441Z,4.57
2022-11-23T00:31:55.836Z,5.82
2022-11-23T00:32:28.953Z,5.10
2022-11-23T00:33:00.385Z,4.53
2022-11-23T00:33:31.788Z,5.28
2022-11-23T00:34:03.515Z,4.82
2022-11-23T00:34:34.901Z,5.13
2022-11-23T00:35:06.422Z,4.57
2022-11-23T00:35:37.803Z,4.32
2022-11-23T00:36:13.223Z,5.80
2022-11-23T00:36:44.649Z,5.45
2022-11-23T00:37:16.028Z,6.25
2022-11-23T00:37:47.414Z,5.20
2022-11-23T00:38:18.796Z,4.80
2022-11-23T00:38:50.501Z,6.53
2022-11-23T00:39:21.940Z,5.13
2022-11-23T00:39:53.362Z,5.65
2022-11-23T00:40:24.752Z,5.13
2022-11-23T00:41:00.257Z,4.80
2022-11-23T00:41:31.681Z,5.32
2022-11-23T00:42:03.186Z,5.85
2022-11-23T00:42:38.015Z,5.47
2022-11-23T00:43:09.685Z,5.47
2022-11-23T00:43:41.178Z,6.38
2022-11-23T00:44:12.569Z,5.50
2022-11-23T00:44:44.037Z,6.07
2022-11-23T00:45:15.536Z,6.43
2022-11-23T00:45:47.179Z,4.70
2022-11-23T00:46:23.122Z,5.40
2022-11-23T00:46:54.495Z,5.35
2022-11-23T00:47:25.889Z,4.65
2022-11-23T00:47:57.347Z,5.93
2022-11-23T00:48:28.751Z,5.28
2022-11-23T00:49:00.198Z,7.72
2022-11-23T00:49:32.029Z,5.82
2022-11-23T00:50:03.687Z,5.63
2022-11-23T00:50:35.070Z,4.72
2022-11-23T00:51:08.149Z,5.53
2022-11-23T00:51:39.585Z,7.53
2022-11-23T00:52:10.972Z,5.05
2022-11-23T00:52:42.353Z,4.95
2022-11-23T00:53:13.730Z,4.90
2022-11-23T00:53:45.135Z,5.63
2022-11-23T00:54:16.576Z,5.25
2022-11-23T00:54:48.050Z,6.30
2022-11-23T00:55:19.388Z,6.28
2022-11-23T00:55:51.549Z,5.90
2022-11-23T00:56:22.991Z,5.90
2022-11-23T00:56:54.483Z,5.55
2022-11-23T00:57:25.904Z,4.18
2022-11-23T00:57:58.029Z,5.97
2022-11-23T00:58:30.033Z,5.68
2022-11-23T00:59:02.092Z,4.80
2022-11-23T00:59:33.947Z,5.57
2022-11-23T01:00:12.770Z,5.88
2022-11-23T01:00:44.158Z,6.03
2022-11-23T01:01:15.761Z,6.03
2022-11-23T01:01:48.921Z,5.82
2022-11-23T01:02:20.412Z,5.18
2022-11-23T01:02:51.827Z,5.47
2022-11-23T01:03:23.338Z,5.33
2022-11-23T01:03:56.258Z,5.75
2022-11-23T01:04:27.648Z,5.20
2022-11-23T01:04:59.457Z,4.97
2022-11-23T01:05:30.895Z,6.57
2022-11-23T01:06:07.343Z,5.72
2022-11-23T01:06:39.639Z,5.68
2022-11-23T01:07:11.140Z,6.30
2022-11-23T01:07:42.679Z,5.22
2022-11-23T01:08:14.158Z,5.47
2022-11-23T01:08:52.427Z,5.80
2022-11-23T01:09:23.908Z,5.65
2022-11-23T01:09:55.430Z,5.78
2022-11-23T01:10:26.891Z,5.20
2022-11-23T01:10:59.082Z,5.28
2022-11-23T01:11:31.748Z,5.43
2022-11-23T01:12:03.224Z,6.18
2022-11-23T01:12:34.667Z,4.68
2022-11-23T01:13:06.136Z,5.78
2022-11-23T01:13:38.483Z,5.47
2022-11-23T01:14:10.411Z,5.95
2022-11-23T01:14:41.802Z,5.32
2022-11-23T01:15:13.299Z,5.53
2022-11-23T01:15:53.580Z,5.63
2022-11-23T01:16:29.847Z,5.43
2022-11-23T01:17:01.323Z,5.20
2022-11-23T01:17:32.761Z,5.32
2022-11-23T01:18:04.201Z,5.55
2022-11-23T01:18:35.691Z,5.60
2022-11-23T01:19:16.949Z,5.18
2022-11-23T01:19:48.407Z,5.68
2022-11-23T01:20:19.895Z,5.25
2022-11-23T01:20:51.570Z,5.85
2022-11-23T01:21:23.957Z,5.93
2022-11-23T01:21:55.470Z,4.38
2022-11-23T01:22:26.857Z,5.40
2022-11-23T01:22:58.272Z,5.88
2022-11-23T01:23:29.932Z,4.35
2022-11-23T01:24:04.648Z,5.32
2022-11-23T01:24:36.055Z,5.68
2022-11-23T01:25:08.031Z,5.60
2022-11-23T01:25:39.442Z,4.90
2022-11-23T01:26:11.320Z,4.80
2022-11-23T01:26:43.471Z,5.57
2022-11-23T01:27:14.930Z,5.40
2022-11-23T01:27:46.352Z,4.93
2022-11-23T01:28:17.836Z,5.07
2022-11-23T01:28:49.309Z,5.22
2022-11-23T01:29:21.182Z,5.20
2022-11-23T01:29:52.565Z,5.85
2022-11-23T01:30:23.945Z,5.88
2022-11-23T01:30:55.382Z,5.68
2022-11-23T01:31:27.092Z,5.15
2022-11-23T01:31:58.564Z,4.75
2022-11-23T01:32:29.998Z,6.43
2022-11-23T01:33:01.439Z,6.20
2022-11-23T01:33:32.991Z,4.70
2022-11-23T01:34:04.891Z,5.28
2022-11-23T01:34:36.387Z,6.38
2022-11-23T01:35:10.072Z,5.93
2022-11-23T01:35:41.595Z,5.50
2022-11-23T01:36:14.123Z,4.85
2022-11-23T01:36:45.623Z,5.47
2022-11-23T01:37:17.137Z,5.40
2022-11-23T01:37:48.577Z,5.40
2022-11-23T01:38:20.012Z,5.35
2022-11-23T01:38:51.824Z,5.65
2022-11-23T01:39:23.257Z,5.70
2022-11-23T01:39:54.691Z,5.63
2022-11-23T01:40:26.157Z,5.15
2022-11-23T01:40:57.559Z,4.60
2022-11-23T01:41:34.061Z,5.35
2022-11-23T01:42:05.503Z,6.10
2022-11-23T01:42:43.832Z,5.13
2022-11-23T01:43:16.910Z,5.22
2022-11-23T01:43:48.666Z,4.80
2022-11-23T01:44:22.303Z,5.88
2022-11-23T01:45:13.624Z,6.45
2022-11-23T01:45:55.457Z,5.38
2022-11-23T01:46:26.930Z,6.95
2022-11-23T01:46:59.744Z,5.97
2022-11-23T01:47:31.186Z,4.35
2022-11-23T01:48:11.466Z,5.18
2022-11-23T01:48:44.707Z,5.05
2022-11-23T01:49:16.299Z,5.50
2022-11-23T01:49:50.347Z,5.03
2022-11-23T01:50:21.843Z,5.82
2022-11-23T01:50:53.759Z,7.03
2022-11-23T01:51:25.240Z,5.28
2022-11-23T01:51:58.047Z,5.68
2022-11-23T01:52:29.529Z,6.35
2022-11-23T01:53:01.127Z,5.72
2022-11-23T01:53:33.291Z,5.13
2022-11-23T01:54:09.079Z,5.93
2022-11-23T01:54:51.471Z,7.05
2022-11-23T01:55:26.954Z,6.65
2022-11-23T01:56:00.031Z,5.78
2022-11-23T01:56:35.211Z,5.82
2022-11-23T01:57:08.837Z,6.47
2022-11-23T01:57:42.086Z,5.68
2022-11-23T01:58:15.799Z,5.63
2022-11-23T01:58:50.565Z,5.85
2022-11-23T01:59:23.515Z,6.13
2022-11-23T01:59:55.547Z,6.78
2022-11-23T02:00:27.902Z,5.90
2022-11-23T02:00:59.416Z,5.22
2022-11-23T02:01:31.194Z,6.10
2022-11-23T02:02:03.505Z,7.18
2022-11-23T02:02:35.762Z,5.40
2022-11-23T02:03:07.195Z,6.30
2022-11-23T02:03:40.122Z,6.28
2022-11-23T02:04:12.945Z,5.18
2022-11-23T02:04:46.237Z,6.03
2022-11-23T02:05:19.557Z,5.70
2022-11-23T02:05:53.505Z,6.00
2022-11-23T02:06:25.185Z,5.32
2022-11-23T02:06:57.401Z,5.50
2022-11-23T02:07:29.035Z,6.30
2022-11-23T02:08:01.102Z,5.93
2022-11-23T02:08:32.517Z,6.60
2022-11-23T02:09:04.249Z,5.47
2022-11-23T02:09:35.925Z,6.23
2022-11-23T02:10:07.752Z,6.93
2022-11-23T02:10:39.240Z,6.43
2022-11-23T02:11:12.326Z,6.35
2022-11-23T02:11:43.952Z,6.75
2022-11-23T02:12:15.519Z,6.00
2022-11-23T02:12:46.991Z,7.22
2022-11-23T02:13:18.554Z,5.32
2022-11-23T02:13:50.816Z,6.53
2022-11-23T02:14:23.681Z,5.70
2022-11-23T02:14:55.250Z,6.93
2022-11-23T02:15:26.632Z,6.43
2022-11-23T02:15:58.374Z,6.13
2022-11-23T02:16:30.170Z,6.63
2022-11-23T02:17:01.603Z,6.53
2022-11-23T02:17:35.897Z,6.03
2022-11-23T02:18:11.338Z,5.72
2022-11-23T02:18:44.423Z,5.97
2022-11-23T02:19:18.266Z,6.53
2022-11-23T02:19:49.847Z,6.40
2022-11-23T02:20:21.354Z,5.90
2022-11-23T02:20:53.749Z,6.57
2022-11-23T02:21:25.258Z,7.10
2022-11-23T02:21:56.784Z,6.80
2022-11-23T02:22:31.400Z,5.43
2022-11-23T02:23:21.374Z,7.03
2022-11-23T02:23:59.253Z,6.55
2022-11-23T02:24:33.553Z,6.63
2022-11-23T02:25:09.040Z,6.85
2022-11-23T02:25:43.344Z,7.53
2022-11-23T02:26:16.626Z,6.70
2022-11-23T02:26:48.230Z,7.15
2022-11-23T02:27:19.805Z,6.70
2022-11-23T02:27:51.517Z,7.10
2022-11-23T02:28:28.119Z,6.80
2022-11-23T02:29:10.920Z,7.03
2022-11-23T02:29:42.466Z,6.70
2022-11-23T02:30:13.926Z,7.32
2022-11-23T02:30:49.928Z,6.40
2022-11-23T02:32:10.635Z,8.50
2022-11-23T02:32:42.426Z,8.07
2022-11-23T02:33:13.915Z,7.30
2022-11-23T02:33:45.345Z,7.13
2022-11-23T02:34:17.555Z,8.43
2022-11-23T02:34:49.362Z,7.05
2022-11-23T02:35:20.988Z,7.80
2022-11-23T02:35:56.794Z,7.78
2022-11-23T02:36:44.764Z,7.05
2022-11-23T02:37:16.854Z,8.05
2022-11-23T02:37:49.064Z,7.70
2022-11-23T02:38:21.352Z,7.60
2022-11-23T02:38:53.834Z,8.93
2022-11-23T02:39:30.417Z,7.43
2022-11-23T02:40:04.769Z,8.63
2022-11-23T02:40:36.934Z,8.40
2022-11-23T02:41:08.395Z,8.15
2022-11-23T02:41:41.252Z,8.82
2022-11-23T02:42:12.695Z,9.95
2022-11-23T02:43:33.669Z,7.68
2022-11-23T02:44:07.966Z,7.78
2022-11-23T02:44:46.314Z,9.30
2022-11-23T02:45:28.585Z,8.35
2022-11-23T02:46:02.020Z,8.73
2022-11-23T02:46:33.559Z,8.25
2022-11-23T02:47:05.214Z,8.48
2022-11-23T02:47:36.621Z,10.45
2022-11-23T02:48:08.042Z,9.20
2022-11-23T02:48:39.469Z,8.88
2022-11-23T02:49:10.847Z,9.50
2022-11-23T02:49:42.739Z,8.05
2022-11-23T02:50:14.341Z,9.07
2022-11-23T02:50:46.120Z,8.35
2022-11-23T02:51:17.533Z,8.18
2022-11-23T02:51:48.927Z,8.70
2022-11-23T02:52:20.365Z,7.70
2022-11-23T02:52:51.836Z,8.10
2022-11-23T02:53:23.275Z,9.03
2022-11-23T02:53:54.777Z,8.77
2022-11-23T02:54:26.461Z,7.15
2022-11-23T02:54:57.838Z,6.75
2022-11-23T02:55:29.297Z,7.68
2022-11-23T02:56:00.770Z,7.70
2022-11-23T02:56:32.251Z,6.13
2022-11-23T02:57:04.865Z,7.78
2022-11-23T02:57:36.613Z,7.00
2022-11-23T02:58:08.268Z,8.27
2022-11-23T02:58:39.717Z,7.68
2022-11-23T02:59:11.130Z,7.20
2022-11-23T02:59:42.576Z,8.13
2022-11-23T03:00:14.216Z,6.90
2022-11-23T03:00:45.748Z,6.97
2022-11-23T03:01:17.241Z,6.82
2022-11-23T03:01:48.942Z,7.13
2022-11-23T03:02:20.421Z,7.85
2022-11-23T03:02:51.855Z,6.78
2022-11-23T03:03:23.242Z,7.05
2022-11-23T03:03:54.843Z,7.38
2022-11-23T03:04:28.065Z,5.95
2022-11-23T03:04:59.817Z,6.55
2022-11-23T03:05:31.251Z,7.82
2022-11-23T03:06:02.734Z,6.60
2022-11-23T03:06:34.280Z,6.97
2022-11-23T03:07:05.848Z,7.80
2022-11-23T03:07:37.326Z,6.82
2022-11-23T03:08:08.839Z,7.15
2022-11-23T03:08:40.228Z,6.15
2022-11-23T03:09:11.669Z,7.15
2022-11-23T03:09:43.170Z,6.80
2022-11-23T03:10:14.590Z,6.65
2022-11-23T03:10:45.974Z,6.88
2022-11-23T03:11:17.433Z,6.27
2022-11-23T03:11:48.858Z,6.28
2022-11-23T03:12:20.601Z,6.35
2022-11-23T03:12:53.716Z,6.07
2022-11-23T03:13:25.175Z,6.47
2022-11-23T03:13:56.657Z,6.40
2022-11-23T03:14:28.082Z,6.57
2022-11-23T03:14:59.519Z,6.75
2022-11-23T03:15:30.863Z,7.05
2022-11-23T03:16:02.254Z,6.45
2022-11-23T03:16:33.719Z,6.40
2022-11-23T03:17:05.187Z,7.30
2022-11-23T03:17:36.810Z,6.30
2022-11-23T03:18:08.246Z,7.13
2022-11-23T03:18:39.638Z,7.55
2022-11-23T03:19:10.988Z,6.77
2022-11-23T03:19:42.429Z,6.68
2022-11-23T03:20:13.890Z,6.43
2022-11-23T03:20:45.332Z,8.20
2022-11-23T03:21:16.817Z,5.95
2022-11-23T03:21:48.279Z,6.57
2022-11-23T03:22:19.999Z,7.32
2022-11-23T03:22:51.477Z,6.70
2022-11-23T03:23:22.896Z,5.45
2022-11-23T03:23:55.138Z,6.82
2022-11-23T03:24:26.630Z,5.72
2022-11-23T03:24:58.199Z,6.13
2022-11-23T03:25:29.603Z,6.20
2022-11-23T03:26:01.464Z,6.95
2022-11-23T03:26:32.879Z,6.45
2022-11-23T03:27:04.423Z,7.47
2022-11-23T03:27:37.385Z,6.63
2022-11-23T03:28:08.823Z,6.38
2022-11-23T03:28:40.422Z,6.05
2022-11-23T03:29:11.824Z,6.82
2022-11-23T03:29:43.211Z,6.38
2022-11-23T03:30:14.842Z,6.40
2022-11-23T03:30:46.245Z,6.15
2022-11-23T03:31:17.601Z,5.68
2022-11-23T03:31:49.052Z,6.20
2022-11-23T03:32:20.420Z,7.18
2022-11-23T03:32:51.819Z,5.75
2022-11-23T03:33:23.423Z,6.63
2022-11-23T03:33:54.909Z,6.57
2022-11-23T03:34:26.331Z,6.25
2022-11-23T03:34:57.773Z,5.90
2022-11-23T03:35:29.209Z,6.38
2022-11-23T03:36:00.819Z,5.82
2022-11-23T03:36:32.343Z,6.10
2022-11-23T03:37:03.882Z,6.05
2022-11-23T03:37:35.369Z,5.05
2022-11-23T03:38:06.874Z,6.63
2022-11-23T03:38:38.402Z,5.50
2022-11-23T03:39:09.842Z,6.20
2022-11-23T03:39:47.048Z,7.47
2022-11-23T03:40:18.925Z,7.90
2022-11-23T03:40:50.355Z,6.25
2022-11-23T03:41:21.830Z,6.13
2022-11-23T03:41:53.379Z,7.63
2022-11-23T03:42:24.923Z,6.18
2022-11-23T03:42:56.362Z,7.82
2022-11-23T03:43:27.735Z,7.60
2022-11-23T03:43:59.211Z,7.13
2022-11-23T03:44:30.611Z,6.20
2022-11-23T03:45:01.973Z,6.32
2022-11-23T03:45:33.388Z,6.47
2022-11-23T03:46:04.859Z,7.57
2022-11-23T03:46:36.351Z,7.00
2022-11-23T03:47:07.795Z,7.27
2022-11-23T03:47:39.282Z,7.53
2022-11-23T03:48:10.701Z,7.35
2022-11-23T03:48:42.168Z,8.63
2022-11-23T03:49:13.645Z,6.13
2022-11-23T03:49:45.105Z,6.57
2022-11-23T03:50:16.636Z,6.88
2022-11-23T03:50:48.063Z,7.35
2022-11-23T03:51:21.393Z,7.45
2022-11-23T03:51:52.839Z,6.78
2022-11-23T03:52:24.243Z,7.00
2022-11-23T03:52:56.161Z,7.25
2022-11-23T03:53:27.594Z,7.10
2022-11-23T03:53:59.043Z,6.07
2022-11-23T03:54:30.421Z,6.32
2022-11-23T03:55:01.863Z,5.97
2022-11-23T03:55:33.709Z,6.43
2022-11-23T03:56:05.249Z,7.20
2022-11-23T03:56:36.688Z,6.22
2022-11-23T03:57:08.125Z,7.05
2022-11-23T03:57:39.503Z,7.43
2022-11-23T03:58:10.945Z,6.10
2022-11-23T03:58:42.346Z,7.78
2022-11-23T03:59:13.766Z,7.93
2022-11-23T03:59:45.280Z,8.27
2022-11-23T04:00:16.797Z,7.67
2022-11-23T04:00:48.233Z,7.95
2022-11-23T04:01:19.765Z,7.75
2022-11-23T04:01:51.285Z,7.82
2022-11-23T04:02:22.722Z,9.40
2022-11-23T04:02:54.086Z,8.75
2022-11-23T04:03:25.524Z,10.65
2022-11-23T04:03:57.012Z,9.18
2022-11-23T04:04:28.453Z,11.52
2022-11-23T04:04:59.928Z,10.57
2022-11-23T04:05:31.374Z,8.50
2022-11-23T04:06:02.816Z,11.40
2022-11-23T04:06:34.264Z,10.43
2022-11-23T04:07:05.888Z,10.48
2022-11-23T04:07:37.407Z,12.48
2022-11-23T04:08:09.149Z,12.82
2022-11-23T04:08:40.563Z,14.77
2022-11-23T04:09:12.523Z,14.07
2022-11-23T04:09:44.010Z,12.93
2022-11-23T04:10:15.998Z,10.20
2022-11-23T04:10:47.439Z,9.47
2022-11-23T04:11:18.876Z,12.43
2022-11-23T04:11:50.358Z,11.55
2022-11-23T04:12:21.800Z,11.75
2022-11-23T04:12:53.647Z,11.77
2022-11-23T04:13:25.157Z,12.50
2022-11-23T04:13:56.569Z,12.88
2022-11-23T04:14:28.013Z,13.18
2022-11-23T04:14:59.359Z,14.30
2022-11-23T04:15:30.940Z,14.55
2022-11-23T04:16:02.442Z,18.02
2022-11-23T04:16:33.812Z,12.85
2022-11-23T04:17:05.408Z,13.67
2022-11-23T04:17:37.709Z,14.10
2022-11-23T04:18:09.162Z,13.52
2022-11-23T04:18:40.582Z,11.32
2022-11-23T04:19:11.990Z,11.70
2022-11-23T04:19:43.459Z,11.32
2022-11-23T04:20:14.900Z,9.25
2022-11-23T04:20:46.384Z,9.43
2022-11-23T04:21:17.784Z,9.48
2022-11-23T04:21:49.160Z,11.30
2022-11-23T04:22:20.600Z,12.15
2022-11-23T04:22:52.027Z,12.63
2022-11-23T04:23:23.441Z,13.23
2022-11-23T04:23:54.810Z,11.60
2022-11-23T04:24:26.295Z,11.32
2022-11-23T04:24:57.755Z,12.07
2022-11-23T04:25:29.274Z,11.00
2022-11-23T04:26:00.924Z,11.77
2022-11-23T04:26:32.501Z,11.00
2022-11-23T04:27:03.946Z,10.32
2022-11-23T04:27:35.458Z,10.75
2022-11-23T04:28:07.033Z,10.55
2022-11-23T04:28:38.453Z,8.70
2022-11-23T04:29:09.851Z,7.53
2022-11-23T04:29:41.234Z,8.23
2022-11-23T04:30:12.932Z,9.70
2022-11-23T04:30:44.412Z,9.50
2022-11-23T04:31:15.951Z,9.65
2022-11-23T04:31:50.001Z,8.73
2022-11-23T04:32:21.648Z,9.20
2022-11-23T04:32:53.128Z,8.77
2022-11-23T04:33:24.724Z,7.55
2022-11-23T04:33:56.154Z,7.47
2022-11-23T04:34:27.531Z,8.60
2022-11-23T04:34:59.122Z,6.72
2022-11-23T04:35:33.660Z,7.82
2022-11-23T04:36:05.350Z,7.20
2022-11-23T04:36:36.839Z,7.43
2022-11-23T04:37:13.091Z,7.43
2022-11-23T04:37:45.043Z,6.75
2022-11-23T04:38:16.686Z,5.90
2022-11-23T04:38:48.102Z,5.47
2022-11-23T04:39:19.493Z,8.27
2022-11-23T04:39:50.907Z,7.15
2022-11-23T04:40:22.417Z,7.57
2022-11-23T04:40:53.915Z,6.22
2022-11-23T04:41:25.507Z,6.45
2022-11-23T04:41:56.995Z,5.38
2022-11-23T04:42:28.536Z,5.57
2022-11-23T04:43:01.776Z,6.10
2022-11-23T04:43:33.598Z,5.95
2022-11-23T04:44:05.764Z,7.10
2022-11-23T04:44:37.243Z,6.78
2022-11-23T04:45:08.849Z,5.65
2022-11-23T04:45:40.627Z,6.95
2022-11-23T04:46:12.133Z,6.50
2022-11-23T04:46:43.556Z,7.77
2022-11-23T04:47:15.044Z,5.72
2022-11-23T04:47:46.890Z,6.25
2022-11-23T04:48:18.335Z,6.97
2022-11-23T04:48:49.767Z,6.50
2022-11-23T04:49:21.157Z,6.78
2022-11-23T04:49:52.556Z,6.43
2022-11-23T04:50:24.020Z,6.07
2022-11-23T04:50:55.885Z,6.53
2022-11-23T04:51:27.524Z,6.40
2022-11-23T04:51:58.950Z,6.20
2022-11-23T04:52:30.434Z,7.10
2022-11-23T04:53:01.938Z,6.80
2022-11-23T04:53:33.484Z,6.93
2022-11-23T04:54:05.138Z,6.38
2022-11-23T04:54:36.594Z,5.88
2022-11-23T04:55:08.338Z,6.82
2022-11-23T04:55:39.790Z,6.65
2022-11-23T04:56:11.224Z,9.27
2022-11-23T04:56:42.650Z,6.65
2022-11-23T04:57:14.249Z,7.63
2022-11-23T04:57:45.755Z,6.47
2022-11-23T04:58:17.233Z,6.65
2022-11-23T04:58:48.649Z,6.95
2022-11-23T04:59:20.146Z,6.55
2022-11-23T04:59:51.580Z,6.47
2022-11-23T05:00:23.140Z,6.55
2022-11-23T05:00:54.632Z,6.35
2022-11-23T05:01:26.172Z,8.80
2022-11-23T05:01:57.689Z,6.60
2022-11-23T05:02:29.090Z,6.72
2022-11-23T05:03:00.935Z,6.97
2022-11-23T05:03:32.360Z,7.32
2022-11-23T05:04:03.838Z,7.03
2022-11-23T05:04:35.287Z,8.38
2022-11-23T05:05:06.847Z,7.22
2022-11-23T05:05:39.195Z,7.18
2022-11-23T05:06:10.626Z,7.22
2022-11-23T05:06:42.054Z,6.80
2022-11-23T05:07:13.540Z,7.53
2022-11-23T05:07:45.119Z,6.65
2022-11-23T05:08:16.625Z,7.25
2022-11-23T05:08:47.971Z,8.98
2022-11-23T05:09:19.651Z,9.63
2022-11-23T05:09:51.048Z,6.57
2022-11-23T05:10:22.489Z,6.90
2022-11-23T05:10:53.966Z,7.70
2022-11-23T05:11:25.419Z,8.07
2022-11-23T05:11:56.894Z,8.82
2022-11-23T05:12:28.278Z,8.00
2022-11-23T05:12:59.831Z,8.90
2022-11-23T05:13:31.512Z,8.43
2022-11-23T05:14:03.001Z,9.00
2022-11-23T05:14:34.407Z,7.13
2022-11-23T05:15:06.246Z,7.97
2022-11-23T05:15:37.725Z,7.47
2022-11-23T05:16:09.213Z,7.07
2022-11-23T05:16:40.648Z,7.82
2022-11-23T05:17:12.257Z,7.27
2022-11-23T05:17:43.747Z,8.55
2022-11-23T05:18:15.261Z,9.30
2022-11-23T05:18:47.032Z,7.55
2022-11-23T05:19:18.485Z,7.60
2022-11-23T05:19:50.046Z,7.13
2022-11-23T05:20:21.439Z,8.93
2022-11-23T05:20:52.859Z,7.57
2022-11-23T05:21:24.305Z,6.72
2022-11-23T05:21:55.739Z,6.80
2022-11-23T05:22:27.235Z,5.55
2022-11-23T05:22:58.977Z,6.20
2022-11-23T05:23:30.480Z,6.50
2022-11-23T05:24:03.398Z,7.43
2022-11-23T05:24:34.955Z,8.73
2022-11-23T05:25:06.882Z,6.70
2022-11-23T05:25:38.624Z,6.93
2022-11-23T05:26:10.614Z,6.80
2022-11-23T05:26:42.152Z,7.32
2022-11-23T05:27:13.589Z,7.80
2022-11-23T05:27:44.939Z,6.93
2022-11-23T05:28:39.023Z,6.95
2022-11-23T05:29:09.690Z,7.88
2022-11-23T05:29:41.099Z,8.70
2022-11-23T05:30:12.835Z,7.32
2022-11-23T05:30:44.298Z,7.03
2022-11-23T05:31:16.001Z,7.35
2022-11-23T05:31:47.429Z,6.50
2022-11-23T05:32:18.854Z,6.63
2022-11-23T05:32:50.293Z,6.95
2022-11-23T05:33:21.685Z,6.70
2022-11-23T05:33:53.165Z,9.38
2022-11-23T05:34:24.595Z,6.32
2022-11-23T05:34:56.010Z,6.95
2022-11-23T05:35:27.527Z,7.30
2022-11-23T05:35:58.959Z,7.38
2022-11-23T05:36:30.296Z,6.22
2022-11-23T05:37:01.730Z,7.18
2022-11-23T05:37:33.194Z,8.68
2022-11-23T05:38:04.777Z,7.43
2022-11-23T05:38:36.180Z,6.57
2022-11-23T05:39:07.624Z,5.72
2022-11-23T05:39:39.202Z,6.80
2022-11-23T05:40:10.973Z,6.78
2022-11-23T05:40:42.436Z,7.03
2022-11-23T05:41:13.922Z,7.88
2022-11-23T05:41:45.442Z,6.20
2022-11-23T05:42:16.841Z,6.38
2022-11-23T05:42:48.315Z,7.35
2022-11-23T05:43:19.753Z,6.25
2022-11-23T05:43:51.187Z,7.57
2022-11-23T05:44:22.598Z,6.32
2022-11-23T05:44:54.055Z,6.00
2022-11-23T05:45:25.817Z,7.63
2022-11-23T05:45:58.850Z,6.30
2022-11-23T05:46:30.291Z,5.97
2022-11-23T05:47:01.723Z,7.07
2022-11-23T05:47:33.335Z,7.63
2022-11-23T05:48:04.947Z,6.60
2022-11-23T05:48:36.425Z,6.90
2022-11-23T05:49:09.349Z,6.63
2022-11-23T05:49:40.737Z,6.93
2022-11-23T05:50:12.261Z,6.75
2022-11-23T05:50:43.715Z,6.18
2022-11-23T05:51:15.155Z,7.50
2022-11-23T05:51:46.580Z,7.15
2022-11-23T05:52:18.081Z,5.82
2022-11-23T05:52:49.467Z,6.93
2022-11-23T05:53:20.862Z,7.72
2022-11-23T05:53:52.490Z,6.72
2022-11-23T05:54:23.873Z,6.28
2022-11-23T05:54:55.633Z,5.95
2022-11-23T05:55:27.076Z,6.25
2022-11-23T05:55:59.121Z,6.88
2022-11-23T05:56:31.018Z,7.13
2022-11-23T05:57:04.496Z,8.23
2022-11-23T05:57:36.001Z,6.57
2022-11-23T05:58:07.478Z,6.88
2022-11-23T05:58:38.905Z,7.80
2022-11-23T05:59:11.059Z,6.88
2022-11-23T05:59:42.573Z,7.05
2022-11-23T06:00:14.218Z,6.70
2022-11-23T06:00:45.682Z,6.35
2022-11-23T06:01:17.128Z,6.28
2022-11-23T06:01:48.606Z,7.75
2022-11-23T06:02:20.067Z,6.35
2022-11-23T06:02:51.478Z,5.55
2022-11-23T06:03:22.872Z,6.25
2022-11-23T06:03:54.345Z,6.88
2022-11-23T06:04:25.966Z,6.05
2022-11-23T06:04:57.433Z,7.15
2022-11-23T06:05:29.254Z,6.10
2022-11-23T06:06:00.663Z,5.43
2022-11-23T06:06:32.213Z,7.50
2022-11-23T06:07:04.537Z,5.13
2022-11-23T06:07:36.607Z,6.53
2022-11-23T06:08:08.327Z,6.57
2022-11-23T06:08:39.853Z,5.68
2022-11-23T06:09:11.411Z,7.55
2022-11-23T06:09:42.887Z,6.15
2022-11-23T06:10:14.330Z,5.88
2022-11-23T06:10:45.757Z,6.78
2022-11-23T06:11:17.197Z,6.85
2022-11-23T06:11:48.629Z,7.22
2022-11-23T06:12:20.012Z,5.28
2022-11-23T06:12:51.417Z,4.85
2022-11-23T06:13:22.886Z,5.63
2022-11-23T06:13:54.349Z,5.10
2022-11-23T06:14:25.817Z,7.30
2022-11-23T06:14:57.325Z,6.40
2022-11-23T06:15:28.810Z,5.95
2022-11-23T06:16:00.383Z,6.68
2022-11-23T06:16:32.141Z,6.10
2022-11-23T06:17:03.683Z,7.10
2022-11-23T06:17:35.838Z,5.53
2022-11-23T06:18:07.310Z,5.50
2022-11-23T06:18:38.694Z,5.78
2022-11-23T06:19:10.198Z,6.40
2022-11-23T06:19:41.623Z,4.93
2022-11-23T06:20:13.114Z,5.80
2022-11-23T06:20:44.604Z,6.47
2022-11-23T06:21:16.288Z,6.20
2022-11-23T06:21:50.510Z,5.80
2022-11-23T06:22:22.192Z,5.97
2022-11-23T06:22:53.779Z,5.85
2022-11-23T06:23:25.170Z,6.18
2022-11-23T06:23:56.704Z,6.00
2022-11-23T06:24:28.097Z,6.32
2022-11-23T06:24:59.426Z,5.55
2022-11-23T06:25:30.878Z,6.22
2022-11-23T06:26:02.471Z,7.15
2022-11-23T06:26:34.040Z,6.53
2022-11-23T06:27:05.479Z,6.88
2022-11-23T06:27:36.955Z,6.72
2022-11-23T06:28:09.033Z,6.45
2022-11-23T06:28:40.782Z,7.38
2022-11-23T06:29:12.255Z,7.72
2022-11-23T06:29:43.741Z,7.78
2022-11-23T06:30:15.545Z,6.68
2022-11-23T06:30:46.997Z,6.60
2022-11-23T06:31:18.489Z,6.53
2022-11-23T06:31:49.955Z,11.73
2022-11-23T06:32:21.389Z,6.18
2022-11-23T06:32:52.892Z,6.35
2022-11-23T06:33:24.320Z,7.07
2022-11-23T06:33:55.710Z,6.72
2022-11-23T06:34:27.195Z,8.60
2022-11-23T06:35:00.962Z,7.03
2022-11-23T06:35:32.785Z,8.50
2022-11-23T06:36:04.378Z,5.80
2022-11-23T06:36:35.928Z,6.78
2022-11-23T06:37:07.407Z,6.68
2022-11-23T06:37:38.837Z,7.78
2022-11-23T06:38:10.278Z,7.53
2022-11-23T06:38:41.708Z,6.82
2022-11-23T06:39:13.096Z,7.10
2022-11-23T06:39:44.534Z,7.20
2022-11-23T06:40:16.276Z,7.13
2022-11-23T06:40:47.706Z,6.68
2022-11-23T06:41:19.156Z,7.63
2022-11-23T06:41:50.534Z,6.53
2022-11-23T06:42:39.536Z,6.40
2022-11-23T06:43:11.599Z,6.00
2022-11-23T06:43:43.045Z,6.45
2022-11-23T06:44:14.467Z,6.00
2022-11-23T06:44:45.846Z,6.50
2022-11-23T06:45:17.388Z,5.78
2022-11-23T06:45:48.720Z,6.07
2022-11-23T06:46:20.119Z,7.90
2022-11-23T06:46:51.547Z,6.97
2022-11-23T06:47:26.373Z,8.00
2022-11-23T06:47:58.019Z,7.38
2022-11-23T06:48:29.545Z,6.80
2022-11-23T06:49:00.926Z,7.78
2022-11-23T06:49:32.540Z,7.13
2022-11-23T06:50:04.547Z,7.10
2022-11-23T06:50:35.973Z,6.57
2022-11-23T06:51:07.499Z,6.72
2022-11-23T06:51:38.930Z,6.80
2022-11-23T06:52:10.372Z,7.05
2022-11-23T06:52:41.822Z,6.82
2022-11-23T06:53:13.564Z,7.38
2022-11-23T06:53:44.959Z,7.82
2022-11-23T06:54:16.378Z,7.60
2022-11-23T06:54:47.763Z,8.23
2022-11-23T06:55:19.151Z,7.05
2022-11-23T06:55:50.613Z,7.68
2022-11-23T06:56:22.032Z,10.75
2022-11-23T06:56:53.477Z,9.43
2022-11-23T06:57:24.902Z,7.55
2022-11-23T06:57:56.704Z,7.10
2022-11-23T06:58:28.284Z,7.63
2022-11-23T06:58:59.788Z,7.68
2022-11-23T06:59:31.386Z,6.53
2022-11-23T07:00:03.900Z,6.88
2022-11-23T07:00:35.347Z,8.85
2022-11-23T07:01:08.016Z,6.47
2022-11-23T07:01:39.605Z,7.27
2022-11-23T07:02:11.123Z,6.80
2022-11-23T07:02:42.719Z,6.97
2022-11-23T07:03:20.781Z,6.70
2022-11-23T07:03:52.292Z,6.65
2022-11-23T07:04:23.732Z,7.10
2022-11-23T07:04:55.250Z,7.00
2022-11-23T07:05:27.427Z,5.55
2022-11-23T07:05:58.908Z,8.18
2022-11-23T07:06:30.422Z,7.38
2022-11-23T07:07:01.896Z,7.30